Kaio Maru — JD2067 — position and weather

sailwx.info

Track history (hours):
 
Tides and Currents Weather Stations Pressure Air Temp Water Temp Dewpoint Dewpoint Depression Visibility Wind Speed Wind Dir Waves Ship Positions

Kaio Maru

Last reported at 2018-Feb-23 10:30 UTC. Time now 2018-Feb-23 10:55 UTC.
Position N 35°38' E 139°46'.

Length 36 m; draft 3.2 m.

Type: Tug. MMSI: 431001455.

Date/timePositionNaut miles runAvg speedWind from/ knotsBaromVisibWave heightAir tempDewpointWater temp
2018-Feb-23 10:30N 35°38' E 139°46'0 0.0
2018-Feb-23 10:00N 35°38' E 139°46'0 0.0
2018-Feb-23 09:30N 35°38' E 139°46'0 0.0
2018-Feb-23 08:58N 35°38' E 139°46'0 0.0
2018-Feb-23 08:30N 35°38' E 139°46'0 0.0
2018-Feb-23 08:00N 35°38' E 139°46'0 0.0
2018-Feb-23 07:30N 35°38' E 139°46'0 0.0
2018-Feb-23 06:59N 35°38' E 139°46'0 0.0
2018-Feb-23 06:30N 35°38' E 139°46'0 0.0
2018-Feb-23 06:00N 35°38' E 139°46'0 0.0
2018-Feb-23 05:30N 35°38' E 139°46'0 0.0
2018-Feb-23 05:00N 35°38' E 139°46'0 0.0
2018-Feb-23 04:28N 35°38' E 139°46'0 0.0
2018-Feb-23 03:59N 35°38' E 139°46'0 0.0
2018-Feb-23 03:28N 35°38' E 139°46'0 0.0
2018-Feb-23 02:59N 35°38' E 139°46'0 0.0
2018-Feb-23 02:28N 35°38' E 139°46'0 0.0
2018-Feb-23 01:58N 35°38' E 139°46'0 0.0
2018-Feb-23 01:30N 35°38' E 139°46'0 0.0
2018-Feb-23 00:57N 35°38' E 139°46'0 0.0
2018-Feb-23 00:28N 35°38' E 139°46'0 0.0
2018-Feb-22 23:57N 35°38' E 139°46'0 0.0
2018-Feb-22 23:29N 35°38' E 139°46'0 0.0
2018-Feb-22 23:00N 35°38' E 139°46'0 0.0
2018-Feb-22 22:30N 35°38' E 139°46'0 0.0
2018-Feb-22 21:58N 35°38' E 139°46'0 0.0
2018-Feb-22 21:30N 35°38' E 139°46'0 0.0
2018-Feb-22 21:00N 35°38' E 139°46'1 1.1
2018-Feb-22 20:30N 35°38' E 139°46'1 2.9
2018-Feb-22 20:00N 35°36' E 139°46'0 0.3
2018-Feb-22 19:30N 35°36' E 139°46'2 4.1
2018-Feb-22 19:00N 35°38' E 139°46'0 0.0
2018-Feb-22 18:23N 35°38' E 139°46'0 0.0
2018-Feb-22 18:00N 35°38' E 139°46'0 0.0
2018-Feb-22 17:27N 35°38' E 139°46'0 0.0
2018-Feb-22 16:59N 35°38' E 139°46'0 0.0
2018-Feb-22 16:30N 35°38' E 139°46'0 0.0
2018-Feb-22 16:01N 35°38' E 139°46'0 0.0
2018-Feb-22 15:30N 35°38' E 139°46'0 0.0
2018-Feb-22 15:00N 35°38' E 139°46'0 0.0
2018-Feb-22 14:28N 35°38' E 139°46'0 0.0
2018-Feb-22 14:00N 35°38' E 139°46'0 0.0
2018-Feb-22 13:30N 35°38' E 139°46'0 0.0
2018-Feb-22 12:59N 35°38' E 139°46'0 0.0
2018-Feb-22 12:28N 35°38' E 139°46'1 1.7
2018-Feb-22 12:00N 35°38' E 139°46'1 2.6
2018-Feb-22 11:30N 35°37' E 139°47'0 0.6
2018-Feb-22 11:00N 35°36' E 139°47'2 5.0
2018-Feb-22 10:30N 35°34' E 139°49'1 1.1
2018-Feb-22 10:00N 35°34' E 139°49'2 3.9
2018-Feb-22 09:31N 35°36' E 139°50'2 3.5
2018-Feb-22 08:56N 35°37' E 139°48'1 2.3
2018-Feb-22 08:31N 35°36' E 139°47'3 5.7
2018-Feb-22 08:00N 35°38' E 139°46'0 0.0
2018-Feb-22 07:30N 35°38' E 139°46'0 0.0
2018-Feb-22 07:00N 35°38' E 139°46'0 0.0
2018-Feb-22 06:30N 35°38' E 139°46'0 0.0
2018-Feb-22 05:59N 35°38' E 139°46'0 0.0
2018-Feb-22 05:29N 35°38' E 139°46'0 0.0
2018-Feb-22 04:51N 35°38' E 139°46'0 0.0
2018-Feb-22 04:27N 35°38' E 139°46'0 0.0
2018-Feb-22 04:00N 35°38' E 139°46'0 0.0
2018-Feb-22 03:22N 35°38' E 139°46'0 0.0
2018-Feb-22 02:59N 35°38' E 139°46'0 0.0
2018-Feb-22 02:30N 35°38' E 139°46'0 0.0
2018-Feb-22 02:00N 35°38' E 139°46'0 0.0
2018-Feb-22 01:30N 35°38' E 139°46'0 0.0
2018-Feb-22 00:59N 35°38' E 139°46'0 0.0
2018-Feb-22 00:29N 35°38' E 139°46'0 0.0
2018-Feb-21 23:59N 35°38' E 139°46'0 0.0
2018-Feb-21 23:30N 35°38' E 139°46'0 0.0
2018-Feb-21 23:00N 35°38' E 139°46'0 0.0
2018-Feb-21 22:30N 35°38' E 139°46'0 0.0
2018-Feb-21 22:00N 35°38' E 139°46'0 0.0
2018-Feb-21 21:30N 35°38' E 139°46'0 0.0
2018-Feb-21 20:59N 35°38' E 139°46'0 0.0
2018-Feb-21 20:30N 35°38' E 139°46'1 1.0
2018-Feb-21 20:01N 35°38' E 139°46'2 4.0
2018-Feb-21 19:30N 35°36' E 139°46'2 4.4
2018-Feb-21 19:00N 35°38' E 139°46'0 0.6
2018-Feb-21 18:30N 35°38' E 139°46'0 0.0
2018-Feb-21 18:00N 35°38' E 139°46'0 0.0
2018-Feb-21 17:30N 35°38' E 139°46'0 0.0
2018-Feb-21 17:01N 35°38' E 139°46'0 0.0
2018-Feb-21 16:30N 35°38' E 139°46'0 0.0
2018-Feb-21 15:52N 35°38' E 139°46'0 0.0
2018-Feb-21 15:31N 35°38' E 139°46'0 0.0
2018-Feb-21 15:00N 35°38' E 139°46'0 0.0
2018-Feb-21 14:30N 35°38' E 139°46'0 0.0
2018-Feb-21 13:56N 35°38' E 139°46'0 0.0
2018-Feb-21 13:30N 35°38' E 139°46'0 0.0
2018-Feb-21 12:59N 35°38' E 139°46'0 0.0
2018-Feb-21 12:30N 35°38' E 139°46'0 0.0
2018-Feb-21 12:00N 35°38' E 139°46'0 0.0
2018-Feb-21 11:30N 35°38' E 139°46'0 0.0
2018-Feb-21 10:56N 35°38' E 139°46'0 0.0
2018-Feb-21 10:28N 35°38' E 139°46'0 0.0
2018-Feb-21 09:59N 35°38' E 139°46'0 0.0
2018-Feb-21 09:29N 35°38' E 139°46'0 0.0
2018-Feb-21 09:00N 35°38' E 139°46'0 0.0
2018-Feb-21 08:29N 35°38' E 139°46'0 0.0
2018-Feb-21 08:00N 35°38' E 139°46'0 0.0
2018-Feb-21 07:28N 35°38' E 139°46'0 0.0
2018-Feb-21 06:59N 35°38' E 139°46'0 0.0
2018-Feb-21 06:30N 35°38' E 139°46'0 0.0
2018-Feb-21 05:59N 35°38' E 139°46'0 0.0
2018-Feb-21 05:29N 35°38' E 139°46'0 0.0
2018-Feb-21 05:01N 35°38' E 139°46'0 0.0
2018-Feb-21 04:29N 35°38' E 139°46'0 0.0
2018-Feb-21 04:00N 35°38' E 139°46'0 0.0
2018-Feb-21 03:30N 35°38' E 139°46'0 0.0
2018-Feb-21 02:59N 35°38' E 139°46'0 0.0
2018-Feb-21 02:30N 35°38' E 139°46'0 0.0
2018-Feb-21 01:56N 35°38' E 139°46'0 0.0
2018-Feb-21 01:28N 35°38' E 139°46'0 0.0
2018-Feb-21 00:59N 35°38' E 139°46'0 0.0
2018-Feb-21 00:26N 35°38' E 139°46'0 0.0
2018-Feb-21 00:00N 35°38' E 139°46'0 0.0
2018-Feb-20 23:29N 35°38' E 139°46'1 2.3
2018-Feb-20 22:59N 35°37' E 139°46'2 3.9
2018-Feb-20 22:29N 35°36' E 139°47'5 9.3
2018-Feb-20 22:00N 35°33' E 139°52'2 3.4
2018-Feb-20 21:27N 35°34' E 139°54'4 9.9
2018-Feb-20 21:00N 35°34' E 139°49'1 2.9
2018-Feb-20 20:30N 35°35' E 139°48'2 3.4
2018-Feb-20 20:00N 35°36' E 139°46'2 3.8
2018-Feb-20 19:30N 35°38' E 139°46'0 0.0
2018-Feb-20 18:57N 35°38' E 139°46'0 0.0
2018-Feb-20 18:30N 35°38' E 139°46'0 0.0
2018-Feb-20 17:59N 35°38' E 139°46'0 0.0
2018-Feb-20 17:29N 35°38' E 139°46'0 0.0
2018-Feb-20 16:59N 35°38' E 139°46'0 0.0
2018-Feb-20 16:28N 35°38' E 139°46'0 0.0
2018-Feb-20 15:59N 35°38' E 139°46'0 0.0
2018-Feb-20 15:30N 35°38' E 139°46'0 0.0
2018-Feb-20 14:59N 35°38' E 139°46'0 0.0
2018-Feb-20 14:30N 35°38' E 139°46'0 0.0
2018-Feb-20 13:58N 35°38' E 139°46'0 0.0
2018-Feb-20 13:30N 35°38' E 139°46'0 0.0
2018-Feb-20 13:00N 35°38' E 139°46'0 0.0
2018-Feb-20 12:29N 35°38' E 139°46'0 0.0
2018-Feb-20 12:00N 35°38' E 139°46'0 0.0
2018-Feb-20 11:29N 35°38' E 139°46'0 0.0
2018-Feb-20 11:00N 35°38' E 139°46'0 0.0
2018-Feb-20 10:29N 35°38' E 139°46'0 0.0
2018-Feb-20 10:00N 35°38' E 139°46'0 0.0
2018-Feb-20 09:25N 35°38' E 139°46'0 0.0
2018-Feb-20 08:59N 35°38' E 139°46'0 0.0
2018-Feb-20 08:29N 35°38' E 139°46'0 0.0
2018-Feb-20 08:00N 35°38' E 139°46'0 0.0
2018-Feb-20 07:29N 35°38' E 139°46'0 0.0
2018-Feb-20 06:51N 35°38' E 139°46'0 0.0
2018-Feb-20 06:30N 35°38' E 139°46'0 0.0
2018-Feb-20 06:00N 35°38' E 139°46'0 0.0
2018-Feb-20 05:22N 35°38' E 139°46'0 0.0
2018-Feb-20 05:01N 35°38' E 139°46'0 0.0
2018-Feb-20 04:30N 35°38' E 139°46'1 2.2
2018-Feb-20 04:00N 35°37' E 139°46'4 7.1
2018-Feb-20 03:30N 35°34' E 139°48'0 0.7
2018-Feb-20 03:00N 35°34' E 139°48'0 0.1
2018-Feb-20 02:30N 35°34' E 139°48'2 4.3
2018-Feb-20 01:59N 35°36' E 139°46'2 3.4
2018-Feb-20 01:30N 35°37' E 139°46'1 1.6
2018-Feb-20 01:00N 35°38' E 139°46'0 0.0
2018-Feb-20 00:28N 35°38' E 139°46'0 0.0
2018-Feb-20 00:00N 35°38' E 139°46'0 0.0
2018-Feb-19 23:27N 35°38' E 139°46'0 0.0
2018-Feb-19 23:00N 35°38' E 139°46'0 0.0
2018-Feb-19 22:30N 35°38' E 139°46'0 0.0
2018-Feb-19 22:01N 35°38' E 139°46'0 0.0
2018-Feb-19 21:30N 35°38' E 139°46'0 0.0
2018-Feb-19 20:59N 35°38' E 139°46'0 0.0
2018-Feb-19 20:30N 35°38' E 139°46'0 0.0
2018-Feb-19 19:59N 35°38' E 139°46'0 0.0
2018-Feb-19 19:30N 35°38' E 139°46'0 0.0
2018-Feb-19 19:00N 35°38' E 139°46'0 0.0
2018-Feb-19 18:31N 35°38' E 139°46'0 0.0
2018-Feb-19 17:59N 35°38' E 139°46'0 0.0
2018-Feb-19 17:30N 35°38' E 139°46'0 0.0
2018-Feb-19 17:00N 35°38' E 139°46'0 0.0
2018-Feb-19 16:19N 35°38' E 139°46'0 0.0
2018-Feb-19 16:00N 35°38' E 139°46'0 0.0
2018-Feb-19 15:29N 35°38' E 139°46'0 0.0
2018-Feb-19 15:00N 35°38' E 139°46'0 0.0
2018-Feb-19 14:30N 35°38' E 139°46'0 0.0
2018-Feb-19 14:00N 35°38' E 139°46'0 0.0
2018-Feb-19 13:31N 35°38' E 139°46'0 0.0
2018-Feb-19 13:00N 35°38' E 139°46'0 0.0
2018-Feb-19 12:30N 35°38' E 139°46'0 0.0
2018-Feb-19 12:00N 35°38' E 139°46'0 0.0
2018-Feb-19 11:29N 35°38' E 139°46'0 0.0
2018-Feb-19 11:01N 35°38' E 139°46'0 0.0
2018-Feb-19 10:30N 35°38' E 139°46'0 0.0
2018-Feb-19 10:00N 35°38' E 139°46'2 3.1
2018-Feb-19 09:29N 35°37' E 139°46'1 1.4
2018-Feb-19 09:00N 35°36' E 139°46'1 1.6
2018-Feb-19 08:30N 35°37' E 139°46'2 3.0
2018-Feb-19 07:59N 35°38' E 139°46'0 0.0
2018-Feb-19 07:29N 35°38' E 139°46'0 0.0
2018-Feb-19 07:00N 35°38' E 139°46'0 0.0
2018-Feb-19 06:30N 35°38' E 139°46'0 0.0
2018-Feb-19 05:57N 35°38' E 139°46'0 0.0
2018-Feb-19 05:30N 35°38' E 139°46'0 0.0
2018-Feb-19 05:00N 35°38' E 139°46'0 0.0
2018-Feb-19 04:29N 35°38' E 139°46'0 0.0
2018-Feb-19 03:59N 35°38' E 139°46'0 0.0
2018-Feb-19 03:25N 35°38' E 139°46'0 0.0
2018-Feb-19 01:58N 35°38' E 139°46'0 0.0
2018-Feb-19 01:18N 35°38' E 139°46'0 0.0
2018-Feb-19 00:59N 35°38' E 139°46'0 0.0
2018-Feb-19 00:27N 35°38' E 139°46'0 0.0
2018-Feb-18 23:48N 35°38' E 139°46'0 0.0
2018-Feb-18 23:28N 35°38' E 139°46'0 0.0
2018-Feb-18 23:00N 35°38' E 139°46'0 0.0
2018-Feb-18 22:30N 35°38' E 139°46'2 3.8
2018-Feb-18 22:00N 35°36' E 139°46'0 0.2
2018-Feb-18 21:31N 35°36' E 139°46'3 5.2
2018-Feb-18 20:59N 35°34' E 139°48'3 6.8
2018-Feb-18 20:30N 35°37' E 139°46'1 2.4
2018-Feb-18 19:57N 35°38' E 139°46'0 0.0
2018-Feb-18 19:30N 35°38' E 139°46'0 0.0
2018-Feb-18 19:00N 35°38' E 139°46'0 0.0
2018-Feb-18 18:28N 35°38' E 139°46'0 0.0
2018-Feb-18 17:52N 35°38' E 139°46'0 0.0
2018-Feb-18 16:30N 35°38' E 139°46'0 0.0
2018-Feb-18 14:04N 35°38' E 139°46'0 0.0
2018-Feb-18 13:59N 35°38' E 139°46'0 0.0
2018-Feb-18 13:19N 35°38' E 139°46'0 0.0
2018-Feb-18 12:57N 35°38' E 139°46'0 0.0
2018-Feb-18 12:25N 35°38' E 139°46'0 0.0
2018-Feb-18 11:54N 35°38' E 139°46'0 0.0
2018-Feb-18 11:30N 35°38' E 139°46'0 0.0
2018-Feb-18 10:57N 35°38' E 139°46'0 0.0
2018-Feb-18 10:30N 35°38' E 139°46'0 0.0
2018-Feb-18 09:58N 35°38' E 139°46'0 0.0
2018-Feb-18 09:29N 35°38' E 139°46'0 0.0
2018-Feb-18 08:49N 35°38' E 139°46'0 0.0
2018-Feb-18 08:28N 35°38' E 139°46'4 7.8
2018-Feb-18 08:00N 35°35' E 139°47'2 3.4
2018-Feb-18 07:30N 35°37' E 139°47'0 0.7
2018-Feb-18 07:00N 35°37' E 139°46'2 3.3
2018-Feb-18 06:30N 35°38' E 139°46'0 0.0
2018-Feb-18 04:36N 35°38' E 139°46'0 0.0
2018-Feb-18 01:58N 35°38' E 139°46'0 0.0
2018-Feb-18 01:28N 35°38' E 139°46'0 0.0
2018-Feb-18 01:00N 35°38' E 139°46'0 0.0
2018-Feb-18 00:31N 35°38' E 139°46'0 0.0
2018-Feb-17 23:59N 35°38' E 139°46'0 0.0
2018-Feb-17 23:29N 35°38' E 139°46'2 4.3
2018-Feb-17 22:56N 35°36' E 139°46'0 1.0
2018-Feb-17 22:30N 35°36' E 139°47'5 8.5
2018-Feb-17 21:57N 35°33' E 139°51'1 1.8
2018-Feb-17 21:30N 35°33' E 139°51'1 2.3
2018-Feb-17 21:00N 35°34' E 139°49'3 7.0
2018-Feb-17 20:30N 35°36' E 139°46'2 4.1
2018-Feb-17 20:00N 35°38' E 139°46'0 0.0
2018-Feb-17 19:27N 35°38' E 139°46'0 0.0
2018-Feb-17 18:59N 35°38' E 139°46'0 0.0
2018-Feb-17 18:14N 35°38' E 139°46'0 0.0
2018-Feb-17 17:58N 35°38' E 139°46'0 0.0
2018-Feb-17 17:30N 35°38' E 139°46'0 0.0
2018-Feb-17 16:57N 35°38' E 139°46'0 0.0
2018-Feb-17 16:01N 35°38' E 139°46'0 0.0
2018-Feb-17 15:10N 35°38' E 139°46'0 0.0
2018-Feb-17 15:00N 35°38' E 139°46'0 0.0
2018-Feb-17 14:30N 35°38' E 139°46'0 0.0
2018-Feb-17 14:00N 35°38' E 139°46'0 0.0
2018-Feb-17 13:31N 35°38' E 139°46'0 0.0
2018-Feb-17 12:58N 35°38' E 139°46'0 0.0
2018-Feb-17 12:29N 35°38' E 139°46'0 0.0
2018-Feb-17 11:56N 35°38' E 139°46'0 0.0
2018-Feb-17 11:29N 35°38' E 139°46'0 0.0
2018-Feb-17 10:57N 35°38' E 139°46'0 0.0
2018-Feb-17 10:30N 35°38' E 139°46'0 0.0
2018-Feb-17 09:57N 35°38' E 139°46'0 0.0
2018-Feb-17 09:26N 35°38' E 139°46'0 0.0
2018-Feb-17 09:00N 35°38' E 139°46'0 0.0
2018-Feb-17 08:29N 35°38' E 139°46'0 0.0
2018-Feb-17 07:57N 35°38' E 139°46'0 0.0
2018-Feb-17 07:29N 35°38' E 139°46'0 0.0
2018-Feb-17 07:00N 35°38' E 139°46'0 0.0
2018-Feb-17 06:29N 35°38' E 139°46'0 0.0
2018-Feb-17 05:58N 35°38' E 139°46'0 0.0
2018-Feb-17 05:24N 35°38' E 139°46'0 0.0
2018-Feb-17 04:58N 35°38' E 139°46'0 0.0
2018-Feb-17 04:30N 35°38' E 139°46'0 0.0
2018-Feb-17 04:00N 35°38' E 139°46'0 0.0
2018-Feb-17 03:30N 35°38' E 139°46'0 0.0
2018-Feb-17 03:00N 35°38' E 139°46'0 0.0
2018-Feb-17 02:29N 35°38' E 139°46'0 0.0
2018-Feb-17 02:00N 35°38' E 139°46'0 0.0
2018-Feb-17 01:28N 35°38' E 139°46'0 0.0
2018-Feb-17 00:54N 35°38' E 139°46'0 0.0
2018-Feb-17 00:30N 35°38' E 139°46'0 0.0
2018-Feb-17 00:00N 35°38' E 139°46'0 0.0
2018-Feb-16 23:31N 35°38' E 139°46'0 0.0
2018-Feb-16 22:59N 35°38' E 139°46'0 0.0
2018-Feb-16 22:29N 35°38' E 139°46'0 0.0
2018-Feb-16 22:00N 35°38' E 139°46'0 0.0
2018-Feb-16 21:31N 35°38' E 139°46'0 0.0
2018-Feb-16 20:58N 35°38' E 139°46'0 0.0
2018-Feb-16 20:30N 35°38' E 139°46'0 0.0
2018-Feb-16 20:00N 35°38' E 139°46'0 0.0
2018-Feb-16 19:30N 35°38' E 139°46'0 0.0
2018-Feb-16 18:59N 35°38' E 139°46'0 0.0
2018-Feb-16 18:29N 35°38' E 139°46'0 0.0
2018-Feb-16 17:59N 35°38' E 139°46'0 0.0
2018-Feb-16 17:28N 35°38' E 139°46'0 0.0
2018-Feb-16 16:56N 35°38' E 139°46'0 0.0
2018-Feb-16 16:25N 35°38' E 139°46'0 0.0
2018-Feb-16 15:59N 35°38' E 139°46'0 0.0
2018-Feb-16 15:27N 35°38' E 139°46'3 5.5
2018-Feb-16 15:00N 35°36' E 139°47'1 1.2
2018-Feb-16 14:30N 35°36' E 139°47'1 2.6
2018-Feb-16 14:00N 35°37' E 139°46'1 1.7
2018-Feb-16 13:29N 35°38' E 139°46'0 0.0
2018-Feb-16 12:57N 35°38' E 139°46'0 0.0
2018-Feb-16 12:30N 35°38' E 139°46'0 0.0
2018-Feb-16 12:00N 35°38' E 139°46'0 0.0
2018-Feb-16 11:30N 35°38' E 139°46'2 4.1
2018-Feb-16 11:01N 35°36' E 139°47'0 0.7
2018-Feb-16 10:30N 35°36' E 139°47'2 4.2
2018-Feb-16 10:00N 35°34' E 139°48'4 6.5
2018-Feb-16 09:27N 35°34' E 139°53'1 2.4
2018-Feb-16 09:00N 35°34' E 139°51'5 9.5
2018-Feb-16 08:30N 35°36' E 139°46'2 4.0
2018-Feb-16 08:00N 35°38' E 139°46'0 0.0
2018-Feb-16 07:29N 35°38' E 139°46'0 0.0
2018-Feb-16 06:59N 35°38' E 139°46'0 0.0
2018-Feb-16 06:30N 35°38' E 139°46'0 0.0
2018-Feb-16 06:00N 35°38' E 139°46'0 0.0
2018-Feb-16 05:28N 35°38' E 139°46'0 0.0
2018-Feb-16 04:59N 35°38' E 139°46'0 0.0
2018-Feb-16 04:29N 35°38' E 139°46'0 0.0
2018-Feb-16 03:59N 35°38' E 139°46'0 0.0
2018-Feb-16 03:30N 35°38' E 139°46'0 0.0
2018-Feb-16 03:00N 35°38' E 139°46'0 0.0
2018-Feb-16 02:30N 35°38' E 139°46'0 0.0
2018-Feb-16 02:00N 35°38' E 139°46'0 0.0
2018-Feb-16 01:30N 35°38' E 139°46'0 0.0
2018-Feb-16 00:59N 35°38' E 139°46'0 0.0
2018-Feb-16 00:30N 35°38' E 139°46'0 0.0
2018-Feb-16 00:00N 35°38' E 139°46'0 0.0
2018-Feb-15 23:30N 35°38' E 139°46'0 0.0
2018-Feb-15 23:00N 35°38' E 139°46'0 0.0
2018-Feb-15 22:27N 35°38' E 139°46'0 0.0
2018-Feb-15 22:00N 35°38' E 139°46'0 0.0
2018-Feb-15 21:29N 35°38' E 139°46'0 0.0
2018-Feb-15 20:58N 35°38' E 139°46'0 0.0
2018-Feb-15 20:29N 35°38' E 139°46'0 0.0
2018-Feb-15 19:59N 35°38' E 139°46'0 0.0
2018-Feb-15 19:29N 35°38' E 139°46'0 0.0
2018-Feb-15 19:00N 35°38' E 139°46'0 0.0
2018-Feb-15 18:30N 35°38' E 139°46'0 0.0
2018-Feb-15 18:00N 35°38' E 139°46'0 0.0
2018-Feb-15 17:29N 35°38' E 139°46'0 0.0
2018-Feb-15 17:00N 35°38' E 139°46'0 0.0
2018-Feb-15 16:30N 35°38' E 139°46'0 0.0
2018-Feb-15 16:00N 35°38' E 139°46'0 0.0
2018-Feb-15 15:30N 35°38' E 139°46'0 0.0
2018-Feb-15 14:58N 35°38' E 139°46'0 0.0
2018-Feb-15 14:29N 35°38' E 139°46'0 0.0
2018-Feb-15 13:58N 35°38' E 139°46'0 0.0
2018-Feb-15 13:28N 35°38' E 139°46'0 0.0
2018-Feb-15 13:00N 35°38' E 139°46'0 0.0
2018-Feb-15 12:30N 35°38' E 139°46'0 0.0
2018-Feb-15 11:57N 35°38' E 139°46'0 0.0
2018-Feb-15 11:30N 35°38' E 139°46'0 0.0
2018-Feb-15 10:57N 35°38' E 139°46'0 0.0
2018-Feb-15 10:29N 35°38' E 139°46'0 0.0
2018-Feb-15 10:00N 35°38' E 139°46'0 0.0
2018-Feb-15 09:29N 35°38' E 139°46'0 0.0
2018-Feb-15 09:00N 35°38' E 139°46'0 0.0
2018-Feb-15 08:29N 35°38' E 139°46'0 0.0
2018-Feb-15 08:00N 35°38' E 139°46'0 0.0
2018-Feb-15 07:30N 35°38' E 139°46'0 0.0
2018-Feb-15 06:57N 35°38' E 139°46'0 0.0
2018-Feb-15 06:19N 35°38' E 139°46'0 0.0
2018-Feb-15 06:00N 35°38' E 139°46'0 0.0
2018-Feb-15 05:30N 35°38' E 139°46'1 2.1
2018-Feb-15 05:00N 35°37' E 139°46'1 2.0
2018-Feb-15 04:29N 35°38' E 139°46'0 0.0
2018-Feb-15 04:00N 35°38' E 139°46'0 0.0
2018-Feb-15 03:30N 35°38' E 139°46'0 0.0
2018-Feb-15 03:00N 35°38' E 139°46'0 0.0
2018-Feb-15 02:30N 35°38' E 139°46'0 0.0
2018-Feb-15 02:00N 35°38' E 139°46'0 0.0
2018-Feb-15 01:27N 35°38' E 139°46'0 0.0
2018-Feb-15 00:56N 35°38' E 139°46'0 0.0
2018-Feb-15 00:28N 35°38' E 139°46'0 0.0
2018-Feb-14 23:58N 35°38' E 139°46'0 0.0
2018-Feb-14 23:23N 35°38' E 139°46'0 0.0
2018-Feb-14 22:58N 35°38' E 139°46'0 0.0
2018-Feb-14 22:28N 35°38' E 139°46'0 0.0
2018-Feb-14 21:59N 35°38' E 139°46'0 0.0
2018-Feb-14 21:28N 35°38' E 139°46'0 0.0
2018-Feb-14 21:00N 35°38' E 139°46'0 0.0
2018-Feb-14 20:26N 35°38' E 139°46'0 0.0
2018-Feb-14 20:00N 35°38' E 139°46'0 0.0
2018-Feb-14 19:30N 35°38' E 139°46'0 0.0
2018-Feb-14 19:00N 35°38' E 139°46'0 0.0
2018-Feb-14 18:30N 35°38' E 139°46'0 0.0
2018-Feb-14 18:00N 35°38' E 139°46'0 0.0
2018-Feb-14 17:30N 35°38' E 139°46'0 0.0
2018-Feb-14 16:59N 35°38' E 139°46'0 0.0
2018-Feb-14 16:28N 35°38' E 139°46'0 0.0
2018-Feb-14 16:00N 35°38' E 139°46'0 0.0
2018-Feb-14 15:28N 35°38' E 139°46'0 0.0
2018-Feb-14 14:59N 35°38' E 139°46'0 0.0
2018-Feb-14 14:25N 35°38' E 139°46'0 0.1
2018-Feb-14 14:00N 35°38' E 139°45'0 0.1
2018-Feb-14 13:30N 35°38' E 139°46'0 0.0
2018-Feb-14 12:57N 35°38' E 139°46'0 0.0
2018-Feb-14 12:30N 35°38' E 139°46'0 0.0
2018-Feb-14 12:00N 35°38' E 139°46'0 0.0
2018-Feb-14 11:27N 35°38' E 139°46'0 0.0
2018-Feb-14 10:55N 35°38' E 139°46'2 4.0
2018-Feb-14 10:30N 35°37' E 139°46'0 0.8
2018-Feb-14 10:00N 35°37' E 139°47'1 2.7
2018-Feb-14 09:30N 35°38' E 139°46'1 1.0
2018-Feb-14 08:56N 35°38' E 139°46'0 0.0
2018-Feb-14 07:53N 35°38' E 139°46'0 0.0
2018-Feb-14 07:28N 35°38' E 139°46'0 0.0
2018-Feb-14 06:51N 35°38' E 139°46'0 0.0
2018-Feb-14 06:26N 35°38' E 139°46'0 0.0
2018-Feb-14 05:56N 35°38' E 139°46'0 0.0
2018-Feb-14 05:30N 35°38' E 139°46'0 0.0
2018-Feb-14 05:00N 35°38' E 139°46'0 0.0
2018-Feb-14 04:30N 35°38' E 139°46'0 0.0
2018-Feb-14 03:56N 35°38' E 139°46'1 1.4
2018-Feb-14 03:30N 35°38' E 139°46'2 4.5
2018-Feb-14 02:59N 35°35' E 139°47'2 3.6
2018-Feb-14 02:31N 35°37' E 139°46'1 2.5
2018-Feb-14 02:00N 35°38' E 139°46'0 0.0
2018-Feb-14 01:29N 35°38' E 139°46'0 0.0
2018-Feb-14 00:57N 35°38' E 139°46'0 0.0
2018-Feb-14 00:28N 35°38' E 139°46'0 0.0
2018-Feb-14 00:00N 35°38' E 139°46'0 0.0
2018-Feb-13 23:30N 35°38' E 139°46'0 0.0
2018-Feb-13 23:00N 35°38' E 139°46'0 0.0
2018-Feb-13 22:30N 35°38' E 139°46'0 0.0
2018-Feb-13 22:00N 35°38' E 139°46'0 0.0
2018-Feb-13 21:30N 35°38' E 139°46'0 0.0
2018-Feb-13 20:59N 35°38' E 139°46'0 0.0
2018-Feb-13 20:22N 35°38' E 139°46'0 0.0
2018-Feb-13 19:59N 35°38' E 139°46'0 0.0
2018-Feb-13 19:29N 35°38' E 139°46'0 0.0
2018-Feb-13 19:01N 35°38' E 139°46'0 0.0
2018-Feb-13 18:30N 35°38' E 139°46'0 0.0
2018-Feb-13 17:57N 35°38' E 139°46'0 0.0
2018-Feb-13 17:29N 35°38' E 139°46'0 0.0
2018-Feb-13 17:00N 35°38' E 139°46'0 0.0
2018-Feb-13 16:30N 35°38' E 139°46'0 0.0
2018-Feb-13 15:59N 35°38' E 139°46'0 0.0
2018-Feb-13 15:30N 35°38' E 139°46'0 0.0
2018-Feb-13 15:00N 35°38' E 139°46'0 0.0
2018-Feb-13 14:29N 35°38' E 139°46'0 0.0
2018-Feb-13 13:58N 35°38' E 139°46'0 0.0
2018-Feb-13 13:25N 35°38' E 139°46'0 0.0
2018-Feb-13 13:00N 35°38' E 139°46'0 0.0
2018-Feb-13 12:30N 35°38' E 139°46'0 0.0
2018-Feb-13 12:00N 35°38' E 139°46'0 0.0
2018-Feb-13 11:28N 35°38' E 139°46'0 0.0
2018-Feb-13 11:00N 35°38' E 139°46'0 0.0
2018-Feb-13 10:30N 35°38' E 139°46'  
Track history (hours):
 
Tides and Currents Weather Stations Pressure Air Temp Water Temp Dewpoint Dewpoint Depression Visibility Wind Speed Wind Dir Waves Ship Positions

Kaio Maru

Last reported at 2018-Feb-23 10:30 UTC. Time now 2018-Feb-23 10:55 UTC.
Position N 35°38' E 139°46'.

Length 36 m; draft 3.2 m.

Type: Tug. MMSI: 431001455.

Date/timePositionNaut miles runAvg speedWind from/ knotsBaromVisibWave heightAir tempDewpointWater temp
2018-Feb-23 10:30N 35°38' E 139°46'0 0.0
2018-Feb-23 10:00N 35°38' E 139°46'0 0.0
2018-Feb-23 09:30N 35°38' E 139°46'0 0.0
2018-Feb-23 08:58N 35°38' E 139°46'0 0.0
2018-Feb-23 08:30N 35°38' E 139°46'0 0.0
2018-Feb-23 08:00N 35°38' E 139°46'0 0.0
2018-Feb-23 07:30N 35°38' E 139°46'0 0.0
2018-Feb-23 06:59N 35°38' E 139°46'0 0.0
2018-Feb-23 06:30N 35°38' E 139°46'0 0.0
2018-Feb-23 06:00N 35°38' E 139°46'0 0.0
2018-Feb-23 05:30N 35°38' E 139°46'0 0.0
2018-Feb-23 05:00N 35°38' E 139°46'0 0.0
2018-Feb-23 04:28N 35°38' E 139°46'0 0.0
2018-Feb-23 03:59N 35°38' E 139°46'0 0.0
2018-Feb-23 03:28N 35°38' E 139°46'0 0.0
2018-Feb-23 02:59N 35°38' E 139°46'0 0.0
2018-Feb-23 02:28N 35°38' E 139°46'0 0.0
2018-Feb-23 01:58N 35°38' E 139°46'0 0.0
2018-Feb-23 01:30N 35°38' E 139°46'0 0.0
2018-Feb-23 00:57N 35°38' E 139°46'0 0.0
2018-Feb-23 00:28N 35°38' E 139°46'0 0.0
2018-Feb-22 23:57N 35°38' E 139°46'0 0.0
2018-Feb-22 23:29N 35°38' E 139°46'0 0.0
2018-Feb-22 23:00N 35°38' E 139°46'0 0.0
2018-Feb-22 22:30N 35°38' E 139°46'0 0.0
2018-Feb-22 21:58N 35°38' E 139°46'0 0.0
2018-Feb-22 21:30N 35°38' E 139°46'0 0.0
2018-Feb-22 21:00N 35°38' E 139°46'1 1.1
2018-Feb-22 20:30N 35°38' E 139°46'1 2.9
2018-Feb-22 20:00N 35°36' E 139°46'0 0.3
2018-Feb-22 19:30N 35°36' E 139°46'2 4.1
2018-Feb-22 19:00N 35°38' E 139°46'0 0.0
2018-Feb-22 18:23N 35°38' E 139°46'0 0.0
2018-Feb-22 18:00N 35°38' E 139°46'0 0.0
2018-Feb-22 17:27N 35°38' E 139°46'0 0.0
2018-Feb-22 16:59N 35°38' E 139°46'0 0.0
2018-Feb-22 16:30N 35°38' E 139°46'0 0.0
2018-Feb-22 16:01N 35°38' E 139°46'0 0.0
2018-Feb-22 15:30N 35°38' E 139°46'0 0.0
2018-Feb-22 15:00N 35°38' E 139°46'0 0.0
2018-Feb-22 14:28N 35°38' E 139°46'0 0.0
2018-Feb-22 14:00N 35°38' E 139°46'0 0.0
2018-Feb-22 13:30N 35°38' E 139°46'0 0.0
2018-Feb-22 12:59N 35°38' E 139°46'0 0.0
2018-Feb-22 12:28N 35°38' E 139°46'1 1.7
2018-Feb-22 12:00N 35°38' E 139°46'1 2.6
2018-Feb-22 11:30N 35°37' E 139°47'0 0.6
2018-Feb-22 11:00N 35°36' E 139°47'2 5.0
2018-Feb-22 10:30N 35°34' E 139°49'1 1.1
2018-Feb-22 10:00N 35°34' E 139°49'2 3.9
2018-Feb-22 09:31N 35°36' E 139°50'2 3.5
2018-Feb-22 08:56N 35°37' E 139°48'1 2.3
2018-Feb-22 08:31N 35°36' E 139°47'3 5.7
2018-Feb-22 08:00N 35°38' E 139°46'0 0.0
2018-Feb-22 07:30N 35°38' E 139°46'0 0.0
2018-Feb-22 07:00N 35°38' E 139°46'0 0.0
2018-Feb-22 06:30N 35°38' E 139°46'0 0.0
2018-Feb-22 05:59N 35°38' E 139°46'0 0.0
2018-Feb-22 05:29N 35°38' E 139°46'0 0.0
2018-Feb-22 04:51N 35°38' E 139°46'0 0.0
2018-Feb-22 04:27N 35°38' E 139°46'0 0.0
2018-Feb-22 04:00N 35°38' E 139°46'0 0.0
2018-Feb-22 03:22N 35°38' E 139°46'0 0.0
2018-Feb-22 02:59N 35°38' E 139°46'0 0.0
2018-Feb-22 02:30N 35°38' E 139°46'0 0.0
2018-Feb-22 02:00N 35°38' E 139°46'0 0.0
2018-Feb-22 01:30N 35°38' E 139°46'0 0.0
2018-Feb-22 00:59N 35°38' E 139°46'0 0.0
2018-Feb-22 00:29N 35°38' E 139°46'0 0.0
2018-Feb-21 23:59N 35°38' E 139°46'0 0.0
2018-Feb-21 23:30N 35°38' E 139°46'0 0.0
2018-Feb-21 23:00N 35°38' E 139°46'0 0.0
2018-Feb-21 22:30N 35°38' E 139°46'0 0.0
2018-Feb-21 22:00N 35°38' E 139°46'0 0.0
2018-Feb-21 21:30N 35°38' E 139°46'0 0.0
2018-Feb-21 20:59N 35°38' E 139°46'0 0.0
2018-Feb-21 20:30N 35°38' E 139°46'1 1.0
2018-Feb-21 20:01N 35°38' E 139°46'2 4.0
2018-Feb-21 19:30N 35°36' E 139°46'2 4.4
2018-Feb-21 19:00N 35°38' E 139°46'0 0.6
2018-Feb-21 18:30N 35°38' E 139°46'0 0.0
2018-Feb-21 18:00N 35°38' E 139°46'0 0.0
2018-Feb-21 17:30N 35°38' E 139°46'0 0.0
2018-Feb-21 17:01N 35°38' E 139°46'0 0.0
2018-Feb-21 16:30N 35°38' E 139°46'0 0.0
2018-Feb-21 15:52N 35°38' E 139°46'0 0.0
2018-Feb-21 15:31N 35°38' E 139°46'0 0.0
2018-Feb-21 15:00N 35°38' E 139°46'0 0.0
2018-Feb-21 14:30N 35°38' E 139°46'0 0.0
2018-Feb-21 13:56N 35°38' E 139°46'0 0.0
2018-Feb-21 13:30N 35°38' E 139°46'0 0.0
2018-Feb-21 12:59N 35°38' E 139°46'0 0.0
2018-Feb-21 12:30N 35°38' E 139°46'0 0.0
2018-Feb-21 12:00N 35°38' E 139°46'0 0.0
2018-Feb-21 11:30N 35°38' E 139°46'0 0.0
2018-Feb-21 10:56N 35°38' E 139°46'0 0.0
2018-Feb-21 10:28N 35°38' E 139°46'0 0.0
2018-Feb-21 09:59N 35°38' E 139°46'0 0.0
2018-Feb-21 09:29N 35°38' E 139°46'0 0.0
2018-Feb-21 09:00N 35°38' E 139°46'0 0.0
2018-Feb-21 08:29N 35°38' E 139°46'0 0.0
2018-Feb-21 08:00N 35°38' E 139°46'0 0.0
2018-Feb-21 07:28N 35°38' E 139°46'0 0.0
2018-Feb-21 06:59N 35°38' E 139°46'0 0.0
2018-Feb-21 06:30N 35°38' E 139°46'0 0.0
2018-Feb-21 05:59N 35°38' E 139°46'0 0.0
2018-Feb-21 05:29N 35°38' E 139°46'0 0.0
2018-Feb-21 05:01N 35°38' E 139°46'0 0.0
2018-Feb-21 04:29N 35°38' E 139°46'0 0.0
2018-Feb-21 04:00N 35°38' E 139°46'0 0.0
2018-Feb-21 03:30N 35°38' E 139°46'0 0.0
2018-Feb-21 02:59N 35°38' E 139°46'0 0.0
2018-Feb-21 02:30N 35°38' E 139°46'0 0.0
2018-Feb-21 01:56N 35°38' E 139°46'0 0.0
2018-Feb-21 01:28N 35°38' E 139°46'0 0.0
2018-Feb-21 00:59N 35°38' E 139°46'0 0.0
2018-Feb-21 00:26N 35°38' E 139°46'0 0.0
2018-Feb-21 00:00N 35°38' E 139°46'0 0.0
2018-Feb-20 23:29N 35°38' E 139°46'1 2.3
2018-Feb-20 22:59N 35°37' E 139°46'2 3.9
2018-Feb-20 22:29N 35°36' E 139°47'5 9.3
2018-Feb-20 22:00N 35°33' E 139°52'2 3.4
2018-Feb-20 21:27N 35°34' E 139°54'4 9.9
2018-Feb-20 21:00N 35°34' E 139°49'1 2.9
2018-Feb-20 20:30N 35°35' E 139°48'2 3.4
2018-Feb-20 20:00N 35°36' E 139°46'2 3.8
2018-Feb-20 19:30N 35°38' E 139°46'0 0.0
2018-Feb-20 18:57N 35°38' E 139°46'0 0.0
2018-Feb-20 18:30N 35°38' E 139°46'0 0.0
2018-Feb-20 17:59N 35°38' E 139°46'0 0.0
2018-Feb-20 17:29N 35°38' E 139°46'0 0.0
2018-Feb-20 16:59N 35°38' E 139°46'0 0.0
2018-Feb-20 16:28N 35°38' E 139°46'0 0.0
2018-Feb-20 15:59N 35°38' E 139°46'0 0.0
2018-Feb-20 15:30N 35°38' E 139°46'0 0.0
2018-Feb-20 14:59N 35°38' E 139°46'0 0.0
2018-Feb-20 14:30N 35°38' E 139°46'0 0.0
2018-Feb-20 13:58N 35°38' E 139°46'0 0.0
2018-Feb-20 13:30N 35°38' E 139°46'0 0.0
2018-Feb-20 13:00N 35°38' E 139°46'0 0.0
2018-Feb-20 12:29N 35°38' E 139°46'0 0.0
2018-Feb-20 12:00N 35°38' E 139°46'0 0.0
2018-Feb-20 11:29N 35°38' E 139°46'0 0.0
2018-Feb-20 11:00N 35°38' E 139°46'0 0.0
2018-Feb-20 10:29N 35°38' E 139°46'0 0.0
2018-Feb-20 10:00N 35°38' E 139°46'0 0.0
2018-Feb-20 09:25N 35°38' E 139°46'0 0.0
2018-Feb-20 08:59N 35°38' E 139°46'0 0.0
2018-Feb-20 08:29N 35°38' E 139°46'0 0.0
2018-Feb-20 08:00N 35°38' E 139°46'0 0.0
2018-Feb-20 07:29N 35°38' E 139°46'0 0.0
2018-Feb-20 06:51N 35°38' E 139°46'0 0.0
2018-Feb-20 06:30N 35°38' E 139°46'0 0.0
2018-Feb-20 06:00N 35°38' E 139°46'0 0.0
2018-Feb-20 05:22N 35°38' E 139°46'0 0.0
2018-Feb-20 05:01N 35°38' E 139°46'0 0.0
2018-Feb-20 04:30N 35°38' E 139°46'1 2.2
2018-Feb-20 04:00N 35°37' E 139°46'4 7.1
2018-Feb-20 03:30N 35°34' E 139°48'0 0.7
2018-Feb-20 03:00N 35°34' E 139°48'0 0.1
2018-Feb-20 02:30N 35°34' E 139°48'2 4.3
2018-Feb-20 01:59N 35°36' E 139°46'2 3.4
2018-Feb-20 01:30N 35°37' E 139°46'1 1.6
2018-Feb-20 01:00N 35°38' E 139°46'0 0.0
2018-Feb-20 00:28N 35°38' E 139°46'0 0.0
2018-Feb-20 00:00N 35°38' E 139°46'0 0.0
2018-Feb-19 23:27N 35°38' E 139°46'0 0.0
2018-Feb-19 23:00N 35°38' E 139°46'0 0.0
2018-Feb-19 22:30N 35°38' E 139°46'0 0.0
2018-Feb-19 22:01N 35°38' E 139°46'0 0.0
2018-Feb-19 21:30N 35°38' E 139°46'0 0.0
2018-Feb-19 20:59N 35°38' E 139°46'0 0.0
2018-Feb-19 20:30N 35°38' E 139°46'0 0.0
2018-Feb-19 19:59N 35°38' E 139°46'0 0.0
2018-Feb-19 19:30N 35°38' E 139°46'0 0.0
2018-Feb-19 19:00N 35°38' E 139°46'0 0.0
2018-Feb-19 18:31N 35°38' E 139°46'0 0.0
2018-Feb-19 17:59N 35°38' E 139°46'0 0.0
2018-Feb-19 17:30N 35°38' E 139°46'0 0.0
2018-Feb-19 17:00N 35°38' E 139°46'0 0.0
2018-Feb-19 16:19N 35°38' E 139°46'0 0.0
2018-Feb-19 16:00N 35°38' E 139°46'0 0.0
2018-Feb-19 15:29N 35°38' E 139°46'0 0.0
2018-Feb-19 15:00N 35°38' E 139°46'0 0.0
2018-Feb-19 14:30N 35°38' E 139°46'0 0.0
2018-Feb-19 14:00N 35°38' E 139°46'0 0.0
2018-Feb-19 13:31N 35°38' E 139°46'0 0.0
2018-Feb-19 13:00N 35°38' E 139°46'0 0.0
2018-Feb-19 12:30N 35°38' E 139°46'0 0.0
2018-Feb-19 12:00N 35°38' E 139°46'0 0.0
2018-Feb-19 11:29N 35°38' E 139°46'0 0.0
2018-Feb-19 11:01N 35°38' E 139°46'0 0.0
2018-Feb-19 10:30N 35°38' E 139°46'0 0.0
2018-Feb-19 10:00N 35°38' E 139°46'2 3.1
2018-Feb-19 09:29N 35°37' E 139°46'1 1.4
2018-Feb-19 09:00N 35°36' E 139°46'1 1.6
2018-Feb-19 08:30N 35°37' E 139°46'2 3.0
2018-Feb-19 07:59N 35°38' E 139°46'0 0.0
2018-Feb-19 07:29N 35°38' E 139°46'0 0.0
2018-Feb-19 07:00N 35°38' E 139°46'0 0.0
2018-Feb-19 06:30N 35°38' E 139°46'0 0.0
2018-Feb-19 05:57N 35°38' E 139°46'0 0.0
2018-Feb-19 05:30N 35°38' E 139°46'0 0.0
2018-Feb-19 05:00N 35°38' E 139°46'0 0.0
2018-Feb-19 04:29N 35°38' E 139°46'0 0.0
2018-Feb-19 03:59N 35°38' E 139°46'0 0.0
2018-Feb-19 03:25N 35°38' E 139°46'0 0.0
2018-Feb-19 01:58N 35°38' E 139°46'0 0.0
2018-Feb-19 01:18N 35°38' E 139°46'0 0.0
2018-Feb-19 00:59N 35°38' E 139°46'0 0.0
2018-Feb-19 00:27N 35°38' E 139°46'0 0.0
2018-Feb-18 23:48N 35°38' E 139°46'0 0.0
2018-Feb-18 23:28N 35°38' E 139°46'0 0.0
2018-Feb-18 23:00N 35°38' E 139°46'0 0.0
2018-Feb-18 22:30N 35°38' E 139°46'2 3.8
2018-Feb-18 22:00N 35°36' E 139°46'0 0.2
2018-Feb-18 21:31N 35°36' E 139°46'3 5.2
2018-Feb-18 20:59N 35°34' E 139°48'3 6.8
2018-Feb-18 20:30N 35°37' E 139°46'1 2.4
2018-Feb-18 19:57N 35°38' E 139°46'0 0.0
2018-Feb-18 19:30N 35°38' E 139°46'0 0.0
2018-Feb-18 19:00N 35°38' E 139°46'0 0.0
2018-Feb-18 18:28N 35°38' E 139°46'0 0.0
2018-Feb-18 17:52N 35°38' E 139°46'0 0.0
2018-Feb-18 16:30N 35°38' E 139°46'0 0.0
2018-Feb-18 14:04N 35°38' E 139°46'0 0.0
2018-Feb-18 13:59N 35°38' E 139°46'0 0.0
2018-Feb-18 13:19N 35°38' E 139°46'0 0.0
2018-Feb-18 12:57N 35°38' E 139°46'0 0.0
2018-Feb-18 12:25N 35°38' E 139°46'0 0.0
2018-Feb-18 11:54N 35°38' E 139°46'0 0.0
2018-Feb-18 11:30N 35°38' E 139°46'0 0.0
2018-Feb-18 10:57N 35°38' E 139°46'0 0.0
2018-Feb-18 10:30N 35°38' E 139°46'0 0.0
2018-Feb-18 09:58N 35°38' E 139°46'0 0.0
2018-Feb-18 09:29N 35°38' E 139°46'0 0.0
2018-Feb-18 08:49N 35°38' E 139°46'0 0.0
2018-Feb-18 08:28N 35°38' E 139°46'4 7.8
2018-Feb-18 08:00N 35°35' E 139°47'2 3.4
2018-Feb-18 07:30N 35°37' E 139°47'0 0.7
2018-Feb-18 07:00N 35°37' E 139°46'2 3.3
2018-Feb-18 06:30N 35°38' E 139°46'0 0.0
2018-Feb-18 04:36N 35°38' E 139°46'0 0.0
2018-Feb-18 01:58N 35°38' E 139°46'0 0.0
2018-Feb-18 01:28N 35°38' E 139°46'0 0.0
2018-Feb-18 01:00N 35°38' E 139°46'0 0.0
2018-Feb-18 00:31N 35°38' E 139°46'0 0.0
2018-Feb-17 23:59N 35°38' E 139°46'0 0.0
2018-Feb-17 23:29N 35°38' E 139°46'2 4.3
2018-Feb-17 22:56N 35°36' E 139°46'0 1.0
2018-Feb-17 22:30N 35°36' E 139°47'5 8.5
2018-Feb-17 21:57N 35°33' E 139°51'1 1.8
2018-Feb-17 21:30N 35°33' E 139°51'1 2.3
2018-Feb-17 21:00N 35°34' E 139°49'3 7.0
2018-Feb-17 20:30N 35°36' E 139°46'2 4.1
2018-Feb-17 20:00N 35°38' E 139°46'0 0.0
2018-Feb-17 19:27N 35°38' E 139°46'0 0.0
2018-Feb-17 18:59N 35°38' E 139°46'0 0.0
2018-Feb-17 18:14N 35°38' E 139°46'0 0.0
2018-Feb-17 17:58N 35°38' E 139°46'0 0.0
2018-Feb-17 17:30N 35°38' E 139°46'0 0.0
2018-Feb-17 16:57N 35°38' E 139°46'0 0.0
2018-Feb-17 16:01N 35°38' E 139°46'0 0.0
2018-Feb-17 15:10N 35°38' E 139°46'0 0.0
2018-Feb-17 15:00N 35°38' E 139°46'0 0.0
2018-Feb-17 14:30N 35°38' E 139°46'0 0.0
2018-Feb-17 14:00N 35°38' E 139°46'0 0.0
2018-Feb-17 13:31N 35°38' E 139°46'0 0.0
2018-Feb-17 12:58N 35°38' E 139°46'0 0.0
2018-Feb-17 12:29N 35°38' E 139°46'0 0.0
2018-Feb-17 11:56N 35°38' E 139°46'0 0.0
2018-Feb-17 11:29N 35°38' E 139°46'0 0.0
2018-Feb-17 10:57N 35°38' E 139°46'0 0.0
2018-Feb-17 10:30N 35°38' E 139°46'0 0.0
2018-Feb-17 09:57N 35°38' E 139°46'0 0.0
2018-Feb-17 09:26N 35°38' E 139°46'0 0.0
2018-Feb-17 09:00N 35°38' E 139°46'0 0.0
2018-Feb-17 08:29N 35°38' E 139°46'0 0.0
2018-Feb-17 07:57N 35°38' E 139°46'0 0.0
2018-Feb-17 07:29N 35°38' E 139°46'0 0.0
2018-Feb-17 07:00N 35°38' E 139°46'0 0.0
2018-Feb-17 06:29N 35°38' E 139°46'0 0.0
2018-Feb-17 05:58N 35°38' E 139°46'0 0.0
2018-Feb-17 05:24N 35°38' E 139°46'0 0.0
2018-Feb-17 04:58N 35°38' E 139°46'0 0.0
2018-Feb-17 04:30N 35°38' E 139°46'0 0.0
2018-Feb-17 04:00N 35°38' E 139°46'0 0.0
2018-Feb-17 03:30N 35°38' E 139°46'0 0.0
2018-Feb-17 03:00N 35°38' E 139°46'0 0.0
2018-Feb-17 02:29N 35°38' E 139°46'0 0.0
2018-Feb-17 02:00N 35°38' E 139°46'0 0.0
2018-Feb-17 01:28N 35°38' E 139°46'0 0.0
2018-Feb-17 00:54N 35°38' E 139°46'0 0.0
2018-Feb-17 00:30N 35°38' E 139°46'0 0.0
2018-Feb-17 00:00N 35°38' E 139°46'0 0.0
2018-Feb-16 23:31N 35°38' E 139°46'0 0.0
2018-Feb-16 22:59N 35°38' E 139°46'0 0.0
2018-Feb-16 22:29N 35°38' E 139°46'0 0.0
2018-Feb-16 22:00N 35°38' E 139°46'0 0.0
2018-Feb-16 21:31N 35°38' E 139°46'0 0.0
2018-Feb-16 20:58N 35°38' E 139°46'0 0.0
2018-Feb-16 20:30N 35°38' E 139°46'0 0.0
2018-Feb-16 20:00N 35°38' E 139°46'0 0.0
2018-Feb-16 19:30N 35°38' E 139°46'0 0.0
2018-Feb-16 18:59N 35°38' E 139°46'0 0.0
2018-Feb-16 18:29N 35°38' E 139°46'0 0.0
2018-Feb-16 17:59N 35°38' E 139°46'0 0.0
2018-Feb-16 17:28N 35°38' E 139°46'0 0.0
2018-Feb-16 16:56N 35°38' E 139°46'0 0.0
2018-Feb-16 16:25N 35°38' E 139°46'0 0.0
2018-Feb-16 15:59N 35°38' E 139°46'0 0.0
2018-Feb-16 15:27N 35°38' E 139°46'3 5.5
2018-Feb-16 15:00N 35°36' E 139°47'1 1.2
2018-Feb-16 14:30N 35°36' E 139°47'1 2.6
2018-Feb-16 14:00N 35°37' E 139°46'1 1.7
2018-Feb-16 13:29N 35°38' E 139°46'0 0.0
2018-Feb-16 12:57N 35°38' E 139°46'0 0.0
2018-Feb-16 12:30N 35°38' E 139°46'0 0.0
2018-Feb-16 12:00N 35°38' E 139°46'0 0.0
2018-Feb-16 11:30N 35°38' E 139°46'2 4.1
2018-Feb-16 11:01N 35°36' E 139°47'0 0.7
2018-Feb-16 10:30N 35°36' E 139°47'2 4.2
2018-Feb-16 10:00N 35°34' E 139°48'4 6.5
2018-Feb-16 09:27N 35°34' E 139°53'1 2.4
2018-Feb-16 09:00N 35°34' E 139°51'5 9.5
2018-Feb-16 08:30N 35°36' E 139°46'2 4.0
2018-Feb-16 08:00N 35°38' E 139°46'0 0.0
2018-Feb-16 07:29N 35°38' E 139°46'0 0.0
2018-Feb-16 06:59N 35°38' E 139°46'0 0.0
2018-Feb-16 06:30N 35°38' E 139°46'0 0.0
2018-Feb-16 06:00N 35°38' E 139°46'0 0.0
2018-Feb-16 05:28N 35°38' E 139°46'0 0.0
2018-Feb-16 04:59N 35°38' E 139°46'0 0.0
2018-Feb-16 04:29N 35°38' E 139°46'0 0.0
2018-Feb-16 03:59N 35°38' E 139°46'0 0.0
2018-Feb-16 03:30N 35°38' E 139°46'0 0.0
2018-Feb-16 03:00N 35°38' E 139°46'0 0.0
2018-Feb-16 02:30N 35°38' E 139°46'0 0.0
2018-Feb-16 02:00N 35°38' E 139°46'0 0.0
2018-Feb-16 01:30N 35°38' E 139°46'0 0.0
2018-Feb-16 00:59N 35°38' E 139°46'0 0.0
2018-Feb-16 00:30N 35°38' E 139°46'0 0.0
2018-Feb-16 00:00N 35°38' E 139°46'0 0.0
2018-Feb-15 23:30N 35°38' E 139°46'0 0.0
2018-Feb-15 23:00N 35°38' E 139°46'0 0.0
2018-Feb-15 22:27N 35°38' E 139°46'0 0.0
2018-Feb-15 22:00N 35°38' E 139°46'0 0.0
2018-Feb-15 21:29N 35°38' E 139°46'0 0.0
2018-Feb-15 20:58N 35°38' E 139°46'0 0.0
2018-Feb-15 20:29N 35°38' E 139°46'0 0.0
2018-Feb-15 19:59N 35°38' E 139°46'0 0.0
2018-Feb-15 19:29N 35°38' E 139°46'0 0.0
2018-Feb-15 19:00N 35°38' E 139°46'0 0.0
2018-Feb-15 18:30N 35°38' E 139°46'0 0.0
2018-Feb-15 18:00N 35°38' E 139°46'0 0.0
2018-Feb-15 17:29N 35°38' E 139°46'0 0.0
2018-Feb-15 17:00N 35°38' E 139°46'0 0.0
2018-Feb-15 16:30N 35°38' E 139°46'0 0.0
2018-Feb-15 16:00N 35°38' E 139°46'0 0.0
2018-Feb-15 15:30N 35°38' E 139°46'0 0.0
2018-Feb-15 14:58N 35°38' E 139°46'0 0.0
2018-Feb-15 14:29N 35°38' E 139°46'0 0.0
2018-Feb-15 13:58N 35°38' E 139°46'0 0.0
2018-Feb-15 13:28N 35°38' E 139°46'0 0.0
2018-Feb-15 13:00N 35°38' E 139°46'0 0.0
2018-Feb-15 12:30N 35°38' E 139°46'0 0.0
2018-Feb-15 11:57N 35°38' E 139°46'0 0.0
2018-Feb-15 11:30N 35°38' E 139°46'0 0.0
2018-Feb-15 10:57N 35°38' E 139°46'0 0.0
2018-Feb-15 10:29N 35°38' E 139°46'0 0.0
2018-Feb-15 10:00N 35°38' E 139°46'0 0.0
2018-Feb-15 09:29N 35°38' E 139°46'0 0.0
2018-Feb-15 09:00N 35°38' E 139°46'0 0.0
2018-Feb-15 08:29N 35°38' E 139°46'0 0.0
2018-Feb-15 08:00N 35°38' E 139°46'0 0.0
2018-Feb-15 07:30N 35°38' E 139°46'0 0.0
2018-Feb-15 06:57N 35°38' E 139°46'0 0.0
2018-Feb-15 06:19N 35°38' E 139°46'0 0.0
2018-Feb-15 06:00N 35°38' E 139°46'0 0.0
2018-Feb-15 05:30N 35°38' E 139°46'1 2.1
2018-Feb-15 05:00N 35°37' E 139°46'1 2.0
2018-Feb-15 04:29N 35°38' E 139°46'0 0.0
2018-Feb-15 04:00N 35°38' E 139°46'0 0.0
2018-Feb-15 03:30N 35°38' E 139°46'0 0.0
2018-Feb-15 03:00N 35°38' E 139°46'0 0.0
2018-Feb-15 02:30N 35°38' E 139°46'0 0.0
2018-Feb-15 02:00N 35°38' E 139°46'0 0.0
2018-Feb-15 01:27N 35°38' E 139°46'0 0.0
2018-Feb-15 00:56N 35°38' E 139°46'0 0.0
2018-Feb-15 00:28N 35°38' E 139°46'0 0.0
2018-Feb-14 23:58N 35°38' E 139°46'0 0.0
2018-Feb-14 23:23N 35°38' E 139°46'0 0.0
2018-Feb-14 22:58N 35°38' E 139°46'0 0.0
2018-Feb-14 22:28N 35°38' E 139°46'0 0.0
2018-Feb-14 21:59N 35°38' E 139°46'0 0.0
2018-Feb-14 21:28N 35°38' E 139°46'0 0.0
2018-Feb-14 21:00N 35°38' E 139°46'0 0.0
2018-Feb-14 20:26N 35°38' E 139°46'0 0.0
2018-Feb-14 20:00N 35°38' E 139°46'0 0.0
2018-Feb-14 19:30N 35°38' E 139°46'0 0.0
2018-Feb-14 19:00N 35°38' E 139°46'0 0.0
2018-Feb-14 18:30N 35°38' E 139°46'0 0.0
2018-Feb-14 18:00N 35°38' E 139°46'0 0.0
2018-Feb-14 17:30N 35°38' E 139°46'0 0.0
2018-Feb-14 16:59N 35°38' E 139°46'0 0.0
2018-Feb-14 16:28N 35°38' E 139°46'0 0.0
2018-Feb-14 16:00N 35°38' E 139°46'0 0.0
2018-Feb-14 15:28N 35°38' E 139°46'0 0.0
2018-Feb-14 14:59N 35°38' E 139°46'0 0.0
2018-Feb-14 14:25N 35°38' E 139°46'0 0.1
2018-Feb-14 14:00N 35°38' E 139°45'0 0.1
2018-Feb-14 13:30N 35°38' E 139°46'0 0.0
2018-Feb-14 12:57N 35°38' E 139°46'0 0.0
2018-Feb-14 12:30N 35°38' E 139°46'0 0.0
2018-Feb-14 12:00N 35°38' E 139°46'0 0.0
2018-Feb-14 11:27N 35°38' E 139°46'0 0.0
2018-Feb-14 10:55N 35°38' E 139°46'2 4.0
2018-Feb-14 10:30N 35°37' E 139°46'0 0.8
2018-Feb-14 10:00N 35°37' E 139°47'1 2.7
2018-Feb-14 09:30N 35°38' E 139°46'1 1.0
2018-Feb-14 08:56N 35°38' E 139°46'0 0.0
2018-Feb-14 07:53N 35°38' E 139°46'0 0.0
2018-Feb-14 07:28N 35°38' E 139°46'0 0.0
2018-Feb-14 06:51N 35°38' E 139°46'0 0.0
2018-Feb-14 06:26N 35°38' E 139°46'0 0.0
2018-Feb-14 05:56N 35°38' E 139°46'0 0.0
2018-Feb-14 05:30N 35°38' E 139°46'0 0.0
2018-Feb-14 05:00N 35°38' E 139°46'0 0.0
2018-Feb-14 04:30N 35°38' E 139°46'0 0.0
2018-Feb-14 03:56N 35°38' E 139°46'1 1.4
2018-Feb-14 03:30N 35°38' E 139°46'2 4.5
2018-Feb-14 02:59N 35°35' E 139°47'2 3.6
2018-Feb-14 02:31N 35°37' E 139°46'1 2.5
2018-Feb-14 02:00N 35°38' E 139°46'0 0.0
2018-Feb-14 01:29N 35°38' E 139°46'0 0.0
2018-Feb-14 00:57N 35°38' E 139°46'0 0.0
2018-Feb-14 00:28N 35°38' E 139°46'0 0.0
2018-Feb-14 00:00N 35°38' E 139°46'0 0.0
2018-Feb-13 23:30N 35°38' E 139°46'0 0.0
2018-Feb-13 23:00N 35°38' E 139°46'0 0.0
2018-Feb-13 22:30N 35°38' E 139°46'0 0.0
2018-Feb-13 22:00N 35°38' E 139°46'0 0.0
2018-Feb-13 21:30N 35°38' E 139°46'0 0.0
2018-Feb-13 20:59N 35°38' E 139°46'0 0.0
2018-Feb-13 20:22N 35°38' E 139°46'0 0.0
2018-Feb-13 19:59N 35°38' E 139°46'0 0.0
2018-Feb-13 19:29N 35°38' E 139°46'0 0.0
2018-Feb-13 19:01N 35°38' E 139°46'0 0.0
2018-Feb-13 18:30N 35°38' E 139°46'0 0.0
2018-Feb-13 17:57N 35°38' E 139°46'0 0.0
2018-Feb-13 17:29N 35°38' E 139°46'0 0.0
2018-Feb-13 17:00N 35°38' E 139°46'0 0.0
2018-Feb-13 16:30N 35°38' E 139°46'0 0.0
2018-Feb-13 15:59N 35°38' E 139°46'0 0.0
2018-Feb-13 15:30N 35°38' E 139°46'0 0.0
2018-Feb-13 15:00N 35°38' E 139°46'0 0.0
2018-Feb-13 14:29N 35°38' E 139°46'0 0.0
2018-Feb-13 13:58N 35°38' E 139°46'0 0.0
2018-Feb-13 13:25N 35°38' E 139°46'0 0.0
2018-Feb-13 13:00N 35°38' E 139°46'0 0.0
2018-Feb-13 12:30N 35°38' E 139°46'0 0.0
2018-Feb-13 12:00N 35°38' E 139°46'0 0.0
2018-Feb-13 11:28N 35°38' E 139°46'0 0.0
2018-Feb-13 11:00N 35°38' E 139°46'0 0.0
2018-Feb-13 10:30N 35°38' E 139°46'  

Dump ship's entire track history